createdAt,value
2019-01-11T00:01:14.905Z,36.08
2019-01-11T00:03:45.122Z,36.05
2019-01-11T00:06:15.376Z,36.04
2019-01-11T00:08:45.667Z,35.82
2019-01-11T00:11:16.843Z,35.98
2019-01-11T00:13:47.086Z,35.96
2019-01-11T00:16:17.324Z,35.92
2019-01-11T00:18:47.582Z,35.92
2019-01-11T00:21:17.821Z,36.01
2019-01-11T00:23:48.496Z,36.11
2019-01-11T00:26:18.825Z,36.17
2019-01-11T00:28:49.037Z,36.29
2019-01-11T00:31:19.273Z,36.33
2019-01-11T00:33:49.514Z,36.44
2019-01-11T00:36:19.802Z,36.39
2019-01-11T00:38:51.062Z,36.61
2019-01-11T00:41:21.267Z,36.65
2019-01-11T00:43:51.508Z,36.70
2019-01-11T00:46:21.726Z,36.58
2019-01-11T00:48:52.020Z,36.62
2019-01-11T00:51:22.236Z,36.65
2019-01-11T00:53:52.537Z,36.65
2019-01-11T00:56:22.877Z,36.63
2019-01-11T00:58:53.143Z,36.80
2019-01-11T01:01:23.486Z,36.83
2019-01-11T01:03:53.772Z,36.63
2019-01-11T01:06:24.029Z,36.66
2019-01-11T01:08:54.254Z,36.71
2019-01-11T01:11:24.520Z,36.75
2019-01-11T01:13:54.764Z,36.93
2019-01-11T01:16:24.990Z,36.91
2019-01-11T01:18:55.253Z,36.95
2019-01-11T01:21:25.479Z,36.92
2019-01-11T01:23:55.905Z,37.05
2019-01-11T01:26:26.153Z,37.04
2019-01-11T01:28:56.378Z,37.01
2019-01-11T01:31:26.701Z,37.06
2019-01-11T01:33:56.920Z,37.00
2019-01-11T01:36:27.178Z,36.96
2019-01-11T01:38:57.390Z,37.05
2019-01-11T01:41:27.712Z,36.97
2019-01-11T01:43:57.962Z,36.90
2019-01-11T01:46:28.200Z,36.83
2019-01-11T01:48:58.524Z,36.96
2019-01-11T01:51:28.747Z,36.85
2019-01-11T01:53:59.117Z,36.93
2019-01-11T01:56:29.347Z,36.76
2019-01-11T01:58:59.605Z,36.84
2019-01-11T02:01:29.933Z,36.89
2019-01-11T02:04:00.219Z,36.95
2019-01-11T02:06:30.467Z,36.80
2019-01-11T02:09:00.687Z,36.84
2019-01-11T02:11:31.000Z,36.79
2019-01-11T02:14:01.217Z,36.80
2019-01-11T02:16:31.472Z,36.89
2019-01-11T02:19:01.763Z,36.82
2019-01-11T02:21:32.071Z,36.71
2019-01-11T02:24:02.303Z,36.92
2019-01-11T02:26:32.544Z,36.81
2019-01-11T02:29:02.796Z,36.82
2019-01-11T02:31:33.237Z,36.85
2019-01-11T02:34:03.504Z,36.80
2019-01-11T02:36:33.710Z,36.86
2019-01-11T02:39:04.858Z,36.82
2019-01-11T02:41:35.088Z,36.66
2019-01-11T02:44:05.329Z,36.68
2019-01-11T02:46:35.656Z,36.70
2019-01-11T02:49:05.972Z,36.73
2019-01-11T02:51:36.215Z,36.75
2019-01-11T02:54:06.478Z,36.78
2019-01-11T02:56:36.742Z,36.82
2019-01-11T02:59:06.975Z,36.86
2019-01-11T03:01:37.233Z,36.78
2019-01-11T03:04:07.455Z,36.71
2019-01-11T03:06:37.697Z,36.72
2019-01-11T03:09:08.077Z,36.92
2019-01-11T03:11:38.296Z,36.79
2019-01-11T03:14:08.616Z,36.81
2019-01-11T03:16:38.947Z,36.86
2019-01-11T03:19:09.227Z,36.81
2019-01-11T03:21:39.471Z,36.79
2019-01-11T03:24:09.711Z,36.80
2019-01-11T03:26:39.954Z,36.65
2019-01-11T03:29:10.180Z,36.65
2019-01-11T03:31:40.500Z,36.76
2019-01-11T03:34:10.746Z,36.74
2019-01-11T03:36:40.986Z,36.79
2019-01-11T03:39:11.225Z,36.76
2019-01-11T03:42:06.178Z,36.79
2019-01-11T03:44:36.415Z,36.64
2019-01-11T03:47:06.637Z,36.76
2019-01-11T03:49:36.877Z,36.76
2019-01-11T03:52:07.119Z,36.73
2019-01-11T03:54:37.388Z,36.68
2019-01-11T03:57:07.603Z,36.58
2019-01-11T03:59:37.852Z,36.66
2019-01-11T04:02:08.074Z,36.58
2019-01-11T04:04:38.391Z,36.66
2019-01-11T04:07:08.638Z,36.62
2019-01-11T04:09:38.857Z,36.48
2019-01-11T04:12:09.112Z,36.43
2019-01-11T04:14:39.343Z,36.55
2019-01-11T04:17:09.586Z,36.49
2019-01-11T04:19:39.967Z,36.50
2019-01-11T04:22:29.840Z,36.57
2019-01-11T04:25:09.415Z,36.40
2019-01-11T04:27:39.706Z,36.41
2019-01-11T04:30:13.738Z,36.42
2019-01-11T04:32:43.951Z,36.34
2019-01-11T04:35:14.290Z,36.47
2019-01-11T04:37:44.500Z,36.30
2019-01-11T04:40:16.266Z,36.33
2019-01-11T04:42:46.476Z,36.54
2019-01-11T04:45:16.760Z,36.34
2019-01-11T04:47:47.077Z,36.33
2019-01-11T04:50:18.969Z,36.41
2019-01-11T04:52:49.207Z,36.29
2019-01-11T04:55:19.447Z,36.43
2019-01-11T04:57:49.757Z,36.29
2019-01-11T05:00:23.467Z,36.44
2019-01-11T05:02:53.699Z,36.39
2019-01-11T05:05:23.910Z,36.44
2019-01-11T05:07:54.226Z,36.42
2019-01-11T05:10:24.454Z,36.37
2019-01-11T05:12:54.782Z,36.52
2019-01-11T05:15:25.018Z,36.53
2019-01-11T05:17:55.236Z,36.55
2019-01-11T05:20:25.477Z,36.65
2019-01-11T05:22:55.682Z,36.83
2019-01-11T05:25:26.026Z,36.56
2019-01-11T05:27:56.322Z,36.49
2019-01-11T05:30:26.650Z,36.86
2019-01-11T05:32:56.869Z,36.78
2019-01-11T05:35:28.897Z,36.69
2019-01-11T05:37:59.118Z,36.38
2019-01-11T05:40:29.374Z,34.37
2019-01-11T05:42:59.611Z,35.20
2019-01-11T05:45:29.821Z,35.25
2019-01-11T05:48:00.071Z,35.41
2019-01-11T05:50:30.286Z,35.45
2019-01-11T05:53:00.535Z,35.39
2019-01-11T05:55:50.070Z,36.14
2019-01-11T05:58:37.142Z,33.35
2019-01-11T06:01:07.387Z,31.17
2019-01-11T06:03:37.628Z,33.05
2019-01-11T06:06:08.064Z,33.89
2019-01-11T06:08:38.861Z,34.41
2019-01-11T06:11:09.200Z,34.64
2019-01-11T06:13:39.421Z,34.89
2019-01-11T06:16:09.834Z,34.97
2019-01-11T06:18:40.082Z,35.11
2019-01-11T06:21:10.305Z,34.96
2019-01-11T06:23:40.567Z,35.01
2019-01-11T06:26:10.780Z,35.04
2019-01-11T06:28:41.032Z,34.82
2019-01-11T06:31:11.268Z,34.70
2019-01-11T06:33:41.523Z,34.63
2019-01-11T06:36:11.762Z,34.66
2019-01-11T06:38:42.061Z,34.56
2019-01-11T06:41:12.310Z,34.54
2019-01-11T06:43:43.021Z,34.54
2019-01-11T06:46:13.239Z,34.44
2019-01-11T06:48:44.009Z,34.25
2019-01-11T06:51:14.236Z,34.03
2019-01-11T06:53:44.481Z,34.14
2019-01-11T06:56:14.741Z,34.14
2019-01-11T06:58:45.465Z,34.09
2019-01-11T07:01:15.699Z,34.02
2019-01-11T07:03:46.026Z,33.95
2019-01-11T07:06:16.262Z,33.86
2019-01-11T07:08:46.570Z,33.85
2019-01-11T07:11:16.814Z,33.84
2019-01-11T07:13:47.048Z,33.80
2019-01-11T07:16:17.306Z,33.79
2019-01-11T07:18:47.529Z,33.74
2019-01-11T07:21:17.830Z,33.73
2019-01-11T07:23:48.064Z,33.71
2019-01-11T07:26:18.414Z,33.69
2019-01-11T07:28:48.753Z,33.58
2019-01-11T07:31:22.160Z,33.55
2019-01-11T07:33:52.587Z,33.56
2019-01-11T07:36:35.120Z,33.47
2019-01-11T07:39:14.966Z,33.49
2019-01-11T07:41:45.255Z,33.49
2019-01-11T07:44:15.509Z,33.47
2019-01-11T07:46:45.757Z,33.37
2019-01-11T07:49:16.065Z,33.39
2019-01-11T07:51:46.339Z,33.36
2019-01-11T07:54:16.646Z,33.31
2019-01-11T07:56:46.985Z,33.29
2019-01-11T07:59:17.274Z,33.27
2019-01-11T08:01:47.515Z,33.31
2019-01-11T08:04:17.794Z,33.25
2019-01-11T08:06:48.143Z,33.25
2019-01-11T08:09:18.468Z,33.23
2019-01-11T08:11:51.782Z,33.19
2019-01-11T08:14:22.022Z,33.14
2019-01-11T08:16:52.392Z,33.13
2019-01-11T08:19:22.683Z,33.11
2019-01-11T08:21:52.936Z,33.15
2019-01-11T08:24:23.190Z,33.14
2019-01-11T08:26:53.711Z,33.07
2019-01-11T08:29:23.948Z,33.07
2019-01-11T08:31:54.280Z,33.07
2019-01-11T08:34:24.513Z,33.03
2019-01-11T08:36:54.763Z,32.99
2019-01-11T08:39:25.014Z,33.02
2019-01-11T08:41:55.256Z,33.03
2019-01-11T08:44:25.500Z,32.97
2019-01-11T08:46:55.723Z,33.03
2019-01-11T08:49:26.296Z,33.03
2019-01-11T08:51:56.573Z,32.95
2019-01-11T08:54:27.196Z,32.90
2019-01-11T08:56:57.475Z,32.98
2019-01-11T08:59:27.925Z,32.98
2019-01-11T09:01:58.155Z,32.89
2019-01-11T09:04:28.441Z,32.92
2019-01-11T09:06:58.942Z,32.93
2019-01-11T09:09:29.256Z,32.86
2019-01-11T09:11:59.629Z,32.85
2019-01-11T09:14:49.279Z,32.89
2019-01-11T09:17:20.350Z,32.86
2019-01-11T09:19:50.584Z,32.72
2019-01-11T09:22:20.853Z,32.88
2019-01-11T09:24:51.127Z,33.28
2019-01-11T09:27:21.377Z,32.92
2019-01-11T09:29:51.925Z,33.45
2019-01-11T09:32:22.290Z,32.78
2019-01-11T09:34:53.974Z,32.02
2019-01-11T09:37:24.706Z,31.15
2019-01-11T09:39:55.291Z,31.84
2019-01-11T09:42:25.599Z,32.12
2019-01-11T09:44:55.915Z,32.21
2019-01-11T09:47:26.254Z,32.30
2019-01-11T09:49:56.481Z,32.34
2019-01-11T09:52:26.751Z,32.37
2019-01-11T09:54:57.019Z,32.42
2019-01-11T09:57:27.857Z,32.41
2019-01-11T09:59:58.180Z,32.36
2019-01-11T10:02:47.291Z,32.24
2019-01-11T10:05:17.700Z,32.26
2019-01-11T10:07:47.954Z,32.27
2019-01-11T10:10:18.245Z,32.16
2019-01-11T10:12:49.097Z,32.10
2019-01-11T10:15:19.419Z,32.06
2019-01-11T10:17:52.159Z,32.08
2019-01-11T10:20:23.574Z,32.26
2019-01-11T10:22:54.071Z,32.46
2019-01-11T10:25:24.409Z,32.63
2019-01-11T10:27:55.163Z,32.79
2019-01-11T10:30:25.402Z,32.96
2019-01-11T10:32:56.287Z,32.93
2019-01-11T10:35:27.907Z,33.25
2019-01-11T10:37:58.970Z,33.43
2019-01-11T10:40:30.409Z,33.51
2019-01-11T10:43:02.498Z,33.62
2019-01-11T10:45:33.470Z,33.70
2019-01-11T10:48:04.671Z,33.71
2019-01-11T10:50:34.988Z,33.81
2019-01-11T10:53:05.277Z,33.89
2019-01-11T10:55:37.566Z,33.96
2019-01-11T10:58:07.492Z,34.07
2019-01-11T11:00:37.712Z,34.17
2019-01-11T11:03:07.946Z,34.04
2019-01-11T11:05:38.167Z,33.57
2019-01-11T11:08:08.441Z,31.35
2019-01-11T11:10:38.649Z,31.60
2019-01-11T11:13:08.882Z,30.13
2019-01-11T11:15:42.633Z,31.75
2019-01-11T11:18:12.873Z,32.01
2019-01-11T11:20:43.107Z,32.24
2019-01-11T11:23:13.342Z,32.38
2019-01-11T11:25:43.571Z,32.56
2019-01-11T11:28:13.894Z,32.68
2019-01-11T11:30:44.194Z,32.79
2019-01-11T11:33:14.470Z,32.87
2019-01-11T11:35:44.715Z,32.97
2019-01-11T11:38:15.003Z,33.01
2019-01-11T11:40:45.326Z,33.08
2019-01-11T11:43:15.609Z,33.21
2019-01-11T11:45:45.848Z,33.25
2019-01-11T11:48:16.153Z,33.26
2019-01-11T11:50:46.391Z,33.34
2019-01-11T11:53:16.603Z,33.42
2019-01-11T11:55:47.381Z,33.42
2019-01-11T11:58:20.074Z,33.50
2019-01-11T12:00:50.338Z,33.52
2019-01-11T12:03:20.558Z,33.50
2019-01-11T12:05:50.767Z,33.52
2019-01-11T12:08:21.065Z,33.61
2019-01-11T12:10:51.290Z,33.63
2019-01-11T12:13:21.599Z,33.69
2019-01-11T12:15:51.832Z,33.70
2019-01-11T12:18:22.046Z,33.71
2019-01-11T12:20:52.393Z,33.71
2019-01-11T12:23:24.217Z,33.79
2019-01-11T12:25:54.458Z,33.77
2019-01-11T12:28:24.660Z,33.85
2019-01-11T12:30:54.921Z,33.86
2019-01-11T12:33:25.202Z,33.88
2019-01-11T12:35:55.442Z,33.88
2019-01-11T12:38:25.658Z,33.86
2019-01-11T12:40:55.866Z,33.91
2019-01-11T12:43:26.072Z,33.92
2019-01-11T12:45:57.272Z,33.95
2019-01-11T12:48:27.493Z,33.97
2019-01-11T12:50:57.710Z,33.93
2019-01-11T12:53:29.009Z,33.91
2019-01-11T12:55:59.237Z,33.95
2019-01-11T12:58:29.488Z,33.96
2019-01-11T13:00:59.700Z,33.93
2019-01-11T13:03:29.948Z,33.91
2019-01-11T13:06:00.238Z,33.99
2019-01-11T13:08:31.738Z,33.97
2019-01-11T13:11:01.952Z,34.05
2019-01-11T13:13:34.822Z,34.13
2019-01-11T13:16:07.765Z,34.18
2019-01-11T13:18:38.107Z,34.23
2019-01-11T13:21:08.392Z,34.26
2019-01-11T13:23:39.023Z,34.30
2019-01-11T13:26:09.242Z,34.28
2019-01-11T13:28:39.479Z,34.31
2019-01-11T13:31:09.711Z,34.27
2019-01-11T13:33:39.960Z,34.32
2019-01-11T13:36:18.080Z,34.34
2019-01-11T13:38:48.288Z,34.40
2019-01-11T13:41:18.528Z,34.39
2019-01-11T13:43:48.740Z,34.40
2019-01-11T13:46:18.965Z,34.40
2019-01-11T13:48:49.165Z,34.46
2019-01-11T13:51:19.421Z,34.47
2019-01-11T13:53:49.634Z,34.46
2019-01-11T13:56:19.901Z,34.46
2019-01-11T13:58:50.153Z,34.47
2019-01-11T14:01:24.922Z,34.46
2019-01-11T14:04:01.016Z,34.47
2019-01-11T14:06:42.477Z,34.47
2019-01-11T14:09:32.690Z,34.47
2019-01-11T14:12:22.491Z,34.48
2019-01-11T14:14:58.026Z,34.46
2019-01-11T14:17:39.417Z,34.48
2019-01-11T14:20:26.292Z,34.45
2019-01-11T14:22:57.625Z,34.46
2019-01-11T14:25:27.951Z,34.46
2019-01-11T14:27:58.172Z,34.46
2019-01-11T14:30:28.424Z,34.45
2019-01-11T14:32:58.659Z,34.49
2019-01-11T14:35:28.879Z,34.46
2019-01-11T14:37:59.098Z,34.44
2019-01-11T14:40:34.572Z,34.47
2019-01-11T14:43:04.891Z,34.50
2019-01-11T14:45:35.101Z,34.44
2019-01-11T14:48:05.415Z,34.46
2019-01-11T14:50:35.657Z,34.46
2019-01-11T14:53:05.959Z,34.47
2019-01-11T14:55:36.190Z,34.48
2019-01-11T14:58:06.591Z,34.46
2019-01-11T15:00:37.257Z,34.48
2019-01-11T15:03:07.480Z,34.50
2019-01-11T15:05:37.797Z,34.49
2019-01-11T15:08:08.013Z,34.54
2019-01-11T15:10:38.252Z,34.52
2019-01-11T15:13:10.912Z,34.54
2019-01-11T15:15:41.148Z,34.51
2019-01-11T15:18:11.349Z,34.52
2019-01-11T15:20:41.558Z,34.51
2019-01-11T15:23:13.564Z,34.56
2019-01-11T15:25:43.760Z,34.56
2019-01-11T15:28:15.802Z,34.54
2019-01-11T15:30:46.082Z,34.56
2019-01-11T15:33:16.321Z,34.54
2019-01-11T15:35:46.528Z,34.54
2019-01-11T15:38:16.978Z,34.57
2019-01-11T15:40:47.289Z,34.57
2019-01-11T15:43:17.658Z,34.54
2019-01-11T15:45:48.017Z,34.56
2019-01-11T15:48:19.706Z,34.55
2019-01-11T15:50:52.550Z,34.53
2019-01-11T15:53:22.949Z,34.53
2019-01-11T15:55:58.926Z,34.52
2019-01-11T15:58:29.279Z,34.51
2019-01-11T16:01:00.083Z,34.50
2019-01-11T16:03:30.522Z,34.51
2019-01-11T16:06:45.552Z,34.52
2019-01-11T16:10:00.719Z,34.53
2019-01-11T16:12:57.328Z,34.54
2019-01-11T16:15:58.515Z,34.54
2019-01-11T16:18:30.906Z,34.54
2019-01-11T16:21:01.438Z,34.56
2019-01-11T16:23:31.783Z,34.53
2019-01-11T16:26:02.138Z,34.55
2019-01-11T16:28:32.457Z,34.55
2019-01-11T16:31:02.822Z,34.56
2019-01-11T16:33:33.222Z,34.53
2019-01-11T16:36:04.588Z,34.54
2019-01-11T16:38:34.936Z,34.52
2019-01-11T16:41:05.260Z,34.52
2019-01-11T16:43:38.858Z,34.50
2019-01-11T16:46:09.166Z,34.46
2019-01-11T16:48:39.542Z,34.47
2019-01-11T16:51:09.859Z,34.45
2019-01-11T16:53:40.197Z,34.47
2019-01-11T16:56:10.513Z,34.46
2019-01-11T16:58:40.875Z,34.47
2019-01-11T17:01:11.185Z,34.48
2019-01-11T17:03:41.530Z,34.47
2019-01-11T17:06:11.833Z,34.45
2019-01-11T17:08:42.143Z,34.45
2019-01-11T17:11:12.458Z,34.46
2019-01-11T17:13:42.768Z,34.45
2019-01-11T17:16:13.418Z,34.46
2019-01-11T17:18:43.724Z,34.46
2019-01-11T17:21:14.069Z,34.44
2019-01-11T17:23:44.402Z,34.40
2019-01-11T17:26:14.747Z,34.45
2019-01-11T17:28:45.085Z,34.44
2019-01-11T17:31:15.395Z,34.41
2019-01-11T17:33:45.744Z,34.41
2019-01-11T17:36:16.053Z,34.42
2019-01-11T17:38:46.415Z,34.39
2019-01-11T17:41:16.730Z,34.42
2019-01-11T17:43:47.093Z,34.44
2019-01-11T17:46:17.420Z,34.43
2019-01-11T17:48:47.770Z,34.41
2019-01-11T17:51:18.186Z,34.40
2019-01-11T17:53:48.517Z,34.37
2019-01-11T17:56:18.865Z,34.37
2019-01-11T17:58:49.157Z,34.33
2019-01-11T18:01:19.480Z,34.35
2019-01-11T18:03:50.830Z,34.36
2019-01-11T18:06:21.266Z,34.35
2019-01-11T18:08:51.581Z,34.33
2019-01-11T18:11:21.942Z,34.35
2019-01-11T18:13:52.249Z,34.31
2019-01-11T18:16:22.600Z,34.33
2019-01-11T18:18:53.329Z,34.32
2019-01-11T18:21:23.650Z,34.28
2019-01-11T18:23:54.012Z,34.25
2019-01-11T18:26:24.331Z,34.28
2019-01-11T18:28:54.681Z,34.28
2019-01-11T18:31:25.008Z,34.27
2019-01-11T18:33:55.358Z,34.23
2019-01-11T18:36:25.679Z,34.25
2019-01-11T18:38:55.985Z,34.24
2019-01-11T18:41:26.212Z,34.24
2019-01-11T18:43:56.524Z,34.23
2019-01-11T18:46:26.740Z,34.23
2019-01-11T18:48:56.984Z,34.25
2019-01-11T18:51:27.232Z,34.23
2019-01-11T18:53:57.462Z,34.22
2019-01-11T18:56:27.726Z,34.22
2019-01-11T18:58:57.958Z,34.21
2019-01-11T19:01:28.221Z,34.13
2019-01-11T19:04:00.484Z,33.99
2019-01-11T19:06:30.735Z,33.95
2019-01-11T19:09:01.064Z,33.90
2019-01-11T19:11:32.697Z,33.81
2019-01-11T19:14:02.917Z,33.82
2019-01-11T19:16:33.164Z,33.66
2019-01-11T19:19:03.459Z,33.66
2019-01-11T19:21:34.053Z,33.54
2019-01-11T19:24:04.565Z,33.45
2019-01-11T19:26:34.824Z,33.26
2019-01-11T19:29:05.033Z,33.29
2019-01-11T19:31:35.346Z,33.28
2019-01-11T19:34:05.686Z,33.23
2019-01-11T19:36:35.929Z,33.20
2019-01-11T19:39:07.144Z,33.16
2019-01-11T19:41:37.459Z,33.02
2019-01-11T19:44:07.726Z,32.92
2019-01-11T19:46:38.035Z,32.95
2019-01-11T19:49:08.274Z,32.93
2019-01-11T19:51:38.551Z,32.84
2019-01-11T19:54:08.820Z,32.81
2019-01-11T19:56:39.058Z,32.71
2019-01-11T19:59:09.298Z,32.71
2019-01-11T20:01:39.796Z,32.52
2019-01-11T20:04:10.121Z,32.64
2019-01-11T20:06:40.424Z,32.63
2019-01-11T20:09:11.212Z,33.04
2019-01-11T20:11:41.805Z,33.15
2019-01-11T20:14:12.193Z,33.42
2019-01-11T20:16:42.462Z,33.44
2019-01-11T20:19:12.702Z,33.52
2019-01-11T20:21:43.308Z,33.58
2019-01-11T20:24:13.610Z,33.61
2019-01-11T20:26:43.869Z,33.41
2019-01-11T20:29:14.159Z,33.33
2019-01-11T20:31:45.301Z,33.34
2019-01-11T20:34:15.610Z,33.44
2019-01-11T20:37:16.423Z,33.28
2019-01-11T20:39:47.739Z,33.65
2019-01-11T20:42:18.094Z,33.74
2019-01-11T20:44:48.343Z,33.73
2019-01-11T20:47:18.676Z,33.69
2019-01-11T20:49:48.921Z,33.69
2019-01-11T20:52:19.148Z,33.78
2019-01-11T20:54:49.468Z,33.77
2019-01-11T20:57:19.734Z,33.85
2019-01-11T20:59:50.050Z,33.84
2019-01-11T21:02:20.320Z,33.85
2019-01-11T21:04:50.689Z,33.96
2019-01-11T21:07:21.280Z,34.05
2019-01-11T21:09:51.555Z,33.99
2019-01-11T21:12:21.809Z,34.04
2019-01-11T21:14:52.169Z,34.05
2019-01-11T21:17:22.410Z,34.10
2019-01-11T21:19:52.770Z,34.11
2019-01-11T21:22:23.059Z,34.12
2019-01-11T21:24:59.949Z,34.15
2019-01-11T21:27:25.276Z,34.17
2019-01-11T21:29:55.531Z,34.18
2019-01-11T21:32:25.760Z,34.26
2019-01-11T21:34:55.992Z,34.23
2019-01-11T21:37:26.266Z,34.21
2019-01-11T21:39:57.829Z,34.22
2019-01-11T21:42:28.184Z,34.25
2019-01-11T21:44:58.445Z,34.27
2019-01-11T21:47:28.691Z,34.30
2019-01-11T21:49:58.981Z,34.27
2019-01-11T21:52:29.218Z,34.22
2019-01-11T21:54:59.493Z,34.32
2019-01-11T21:57:29.730Z,34.35
2019-01-11T21:59:59.996Z,34.41
2019-01-11T22:02:30.294Z,34.39
2019-01-11T22:05:00.650Z,34.45
2019-01-11T22:07:30.892Z,34.44
2019-01-11T22:10:01.184Z,34.49
2019-01-11T22:12:31.405Z,34.52
2019-01-11T22:15:01.627Z,34.54
2019-01-11T22:17:31.967Z,34.55
2019-01-11T22:20:02.262Z,34.63
2019-01-11T22:22:32.678Z,34.64
2019-01-11T22:25:02.947Z,34.74
2019-01-11T22:27:33.231Z,34.88
2019-01-11T22:30:03.467Z,34.82
2019-01-11T22:32:33.717Z,34.79
2019-01-11T22:35:03.962Z,34.71
2019-01-11T22:37:34.270Z,34.51
2019-01-11T22:40:05.190Z,34.48
2019-01-11T22:42:35.416Z,34.49
2019-01-11T22:45:07.039Z,34.56
2019-01-11T22:47:37.702Z,34.57
2019-01-11T22:50:08.519Z,34.60
2019-01-11T22:52:38.750Z,34.56
2019-01-11T22:55:10.309Z,34.58
2019-01-11T22:57:40.609Z,34.55
2019-01-11T23:00:46.272Z,34.57
2019-01-11T23:03:23.326Z,34.65
2019-01-11T23:05:56.829Z,34.68
2019-01-11T23:08:27.124Z,34.62
2019-01-11T23:11:14.879Z,34.70
2019-01-11T23:13:45.111Z,34.66
2019-01-11T23:16:23.716Z,34.75
2019-01-11T23:18:55.566Z,34.74
2019-01-11T23:21:25.904Z,34.74
2019-01-11T23:23:57.516Z,34.69
2019-01-11T23:26:27.970Z,34.66
2019-01-11T23:28:58.258Z,34.75
2019-01-11T23:31:28.516Z,34.76
2019-01-11T23:33:58.762Z,34.81
2019-01-11T23:36:28.993Z,34.80
2019-01-11T23:38:59.245Z,34.79
2019-01-11T23:41:29.469Z,34.80
2019-01-11T23:44:01.580Z,34.82
2019-01-11T23:46:31.796Z,34.82
2019-01-11T23:49:02.067Z,34.86
2019-01-11T23:51:32.432Z,34.82
2019-01-11T23:54:02.658Z,34.84
2019-01-11T23:56:32.890Z,34.82
2019-01-11T23:59:03.108Z,34.83
